Time;durP1;ratioP1;P1;durP2;ratioP2;P2;SDS_P1;SDS_P2;PMS_P1;PMS_P2;Temp;Humidity;BMP_temperature;BMP_pressure;BME280_temperature;BME280_humidity;BME280_pressure;Samples;Min_cycle;Max_cycle;Signal;HPM_P1;HPM_P2
2021/12/24 00:00:03;;;;;;;101.72;59.60;;;;;;;;;;5037509;28;20249;-60
2021/12/24 00:02:29;;;;;;;96.90;59.13;;;;;;;;;;5039932;28;20045;-61
2021/12/24 00:04:54;;;;;;;101.40;58.45;;;;;;;;;;5037245;28;20041;-60
2021/12/24 00:07:19;;;;;;;96.50;54.47;;;;;;;;;;5039682;28;20017;-60
2021/12/24 00:09:44;;;;;;;93.43;56.10;;;;;;;;;;5038186;28;20395;-60
2021/12/24 00:12:15;;;;;;;107.70;58.97;;;;;;;;;;5039122;28;20038;-60
2021/12/24 00:14:45;;;;;;;95.07;58.80;;;;;;;;;;5037153;28;20088;-60
2021/12/24 00:17:14;;;;;;;106.65;59.45;;;;;;;;;;5039674;28;20101;-60
2021/12/24 00:19:48;;;;;;;91.45;53.65;;;;;;;;;;5037187;28;20061;-59
2021/12/24 00:22:40;;;;;;;87.72;54.55;;;;;;;;;;5041078;28;20384;-59
2021/12/24 00:35:53;;;;;;;79.32;53.28;;;;;;;;;;5041161;28;20041;-59
2021/12/24 00:38:18;;;;;;;75.23;51.37;;;;;;;;;;5043433;28;20427;-59
2021/12/24 00:40:45;;;;;;;77.25;49.85;;;;;;;;;;5042546;28;20032;-59
2021/12/24 00:43:11;;;;;;;78.88;49.60;;;;;;;;;;5042499;28;20071;-59
2021/12/24 00:45:37;;;;;;;72.07;46.17;;;;;;;;;;5041931;28;20033;-59
2021/12/24 00:48:03;;;;;;;75.60;47.70;;;;;;;;;;5044327;28;20024;-58
2021/12/24 00:50:30;;;;;;;69.50;47.60;;;;;;;;;;5040903;28;20037;-58
2021/12/24 00:55:02;;;;;;;68.55;49.88;;;;;;;;;;5042777;28;20096;-58
2021/12/24 00:55:48;;;;;;;71.57;46.03;;;;;;;;;;5040045;28;20048;-59
2021/12/24 00:58:13;;;;;;;74.55;47.60;;;;;;;;;;5043991;28;20100;-59
2021/12/24 01:00:38;;;;;;;68.33;44.67;;;;;;;;;;5042180;28;20045;-59
2021/12/24 01:03:05;;;;;;;68.55;48.30;;;;;;;;;;5038803;28;20063;-59
2021/12/24 01:05:31;;;;;;;68.40;45.10;;;;;;;;;;5042438;28;20078;-59
2021/12/24 01:07:56;;;;;;;69.15;49.00;;;;;;;;;;5043851;28;20029;-59
2021/12/24 01:10:24;;;;;;;75.63;48.73;;;;;;;;;;5041086;28;20446;-59
2021/12/24 01:12:50;;;;;;;65.40;47.65;;;;;;;;;;5040783;28;20962;-59
2021/12/24 01:15:15;;;;;;;75.30;48.67;;;;;;;;;;5042375;28;20037;-58
2021/12/24 01:20:39;;;;;;;68.43;48.00;;;;;;;;;;5042581;28;20108;-59
2021/12/24 01:25:43;;;;;;;74.00;49.08;;;;;;;;;;5042143;28;20025;-59
2021/12/24 01:39:23;;;;;;;71.03;47.80;;;;;;;;;;5039558;28;20040;-59
2021/12/24 01:44:33;;;;;;;70.38;48.35;;;;;;;;;;5040959;28;20040;-60
2021/12/24 01:46:59;;;;;;;71.32;46.13;;;;;;;;;;5044011;28;20025;-59
2021/12/24 01:49:25;;;;;;;73.00;47.95;;;;;;;;;;5039257;28;20045;-59
2021/12/24 01:51:51;;;;;;;64.97;45.53;;;;;;;;;;5040513;28;20033;-59
2021/12/24 01:54:16;;;;;;;63.55;41.55;;;;;;;;;;5038752;28;20113;-59
2021/12/24 01:56:42;;;;;;;66.55;44.88;;;;;;;;;;5041587;28;20071;-59
2021/12/24 01:59:07;;;;;;;62.90;45.67;;;;;;;;;;5041208;28;20021;-59
2021/12/24 02:01:32;;;;;;;56.40;42.70;;;;;;;;;;5040120;28;20119;-59
2021/12/24 02:03:58;;;;;;;59.40;40.57;;;;;;;;;;5041193;28;20117;-59
2021/12/24 02:06:23;;;;;;;62.45;42.92;;;;;;;;;;5040076;28;20451;-60
2021/12/24 02:08:48;;;;;;;58.03;43.28;;;;;;;;;;5042574;28;20016;-59
2021/12/24 02:11:13;;;;;;;65.90;41.93;;;;;;;;;;5040518;28;20033;-59
2021/12/24 02:13:39;;;;;;;67.82;44.03;;;;;;;;;;5041304;28;20435;-59
2021/12/24 02:16:24;;;;;;;63.60;41.58;;;;;;;;;;5041295;28;20041;-59
2021/12/24 02:29:49;;;;;;;59.80;41.58;;;;;;;;;;5038982;28;20040;-59
2021/12/24 02:32:14;;;;;;;59.65;40.10;;;;;;;;;;5041387;28;20009;-60
2021/12/24 02:34:39;;;;;;;58.90;39.43;;;;;;;;;;5037550;28;20568;-59
2021/12/24 02:37:05;;;;;;;58.55;40.40;;;;;;;;;;5042492;28;20455;-60
2021/12/24 02:39:30;;;;;;;60.67;41.27;;;;;;;;;;5040173;28;20033;-60
2021/12/24 02:41:57;;;;;;;62.42;42.25;;;;;;;;;;5041849;28;20028;-60
2021/12/24 02:44:22;;;;;;;68.10;44.13;;;;;;;;;;5039225;28;20133;-60
2021/12/24 02:54:52;;;;;;;68.35;42.03;;;;;;;;;;5039377;28;20040;-59
2021/12/24 02:57:20;;;;;;;65.80;44.28;;;;;;;;;;5040786;28;20017;-59
2021/12/24 02:59:58;;;;;;;64.88;42.45;;;;;;;;;;5040441;28;20094;-61
2021/12/24 03:02:24;;;;;;;65.53;41.63;;;;;;;;;;5040734;28;20031;-61
2021/12/24 03:04:49;;;;;;;62.10;40.90;;;;;;;;;;5036166;28;20037;-61
2021/12/24 03:07:14;;;;;;;68.30;45.92;;;;;;;;;;5041368;28;20092;-60
2021/12/24 03:09:39;;;;;;;70.55;43.45;;;;;;;;;;5039686;28;20029;-61
2021/12/24 03:12:04;;;;;;;67.03;41.53;;;;;;;;;;5039117;28;20469;-61
2021/12/24 03:14:30;;;;;;;68.15;42.58;;;;;;;;;;5039988;28;20056;-60
2021/12/24 03:16:59;;;;;;;71.13;41.07;;;;;;;;;;5040433;28;20010;-60
2021/12/24 03:19:28;;;;;;;69.25;43.33;;;;;;;;;;5035842;28;20847;-60
2021/12/24 03:22:01;;;;;;;70.07;42.65;;;;;;;;;;5041517;28;20051;-60
2021/12/24 03:26:55;;;;;;;66.60;40.53;;;;;;;;;;5041027;28;20021;-60
2021/12/24 03:29:20;;;;;;;68.30;43.20;;;;;;;;;;5037478;28;20036;-60
2021/12/24 03:31:46;;;;;;;66.82;46.42;;;;;;;;;;5040647;28;20020;-60
2021/12/24 03:34:14;;;;;;;73.10;43.22;;;;;;;;;;5037724;28;20028;-60
2021/12/24 03:36:39;;;;;;;70.68;43.03;;;;;;;;;;5040916;28;20052;-60
2021/12/24 03:39:05;;;;;;;81.05;47.08;;;;;;;;;;5037128;28;20492;-60
2021/12/24 03:41:31;;;;;;;69.80;43.70;;;;;;;;;;5041652;28;20021;-60
2021/12/24 03:43:56;;;;;;;74.53;43.50;;;;;;;;;;5038392;28;20513;-60
2021/12/24 03:46:30;;;;;;;64.90;40.50;;;;;;;;;;5039836;28;20092;-60
2021/12/24 03:48:59;;;;;;;71.82;42.28;;;;;;;;;;5040978;28;20381;-58
2021/12/24 03:56:42;;;;;;;68.78;44.08;;;;;;;;;;5040555;28;20095;-60
2021/12/24 03:59:08;;;;;;;69.55;43.60;;;;;;;;;;5038245;28;20013;-60
2021/12/24 04:01:34;;;;;;;69.30;41.83;;;;;;;;;;5042574;28;20060;-60
2021/12/24 04:03:59;;;;;;;60.53;40.20;;;;;;;;;;5040798;28;20046;-60
2021/12/24 04:06:24;;;;;;;67.10;44.28;;;;;;;;;;5045162;28;20020;-60
2021/12/24 04:08:50;;;;;;;70.20;38.13;;;;;;;;;;5042415;28;20021;-60
2021/12/24 04:11:15;;;;;;;62.30;41.20;;;;;;;;;;5042908;28;20474;-60
2021/12/24 04:13:40;;;;;;;67.10;39.42;;;;;;;;;;5042402;28;20104;-61
2021/12/24 04:16:06;;;;;;;76.55;44.45;;;;;;;;;;5041275;28;20436;-60
2021/12/24 04:18:50;;;;;;;68.25;44.90;;;;;;;;;;5044893;28;20010;-60
2021/12/24 04:26:42;;;;;;;78.95;46.97;;;;;;;;;;5042685;28;20032;-61
2021/12/24 04:29:08;;;;;;;71.40;46.42;;;;;;;;;;5039711;28;20021;-61
2021/12/24 04:31:44;;;;;;;74.00;48.97;;;;;;;;;;5044201;28;20045;-61
2021/12/24 04:34:10;;;;;;;84.30;49.67;;;;;;;;;;5041633;28;20022;-61
2021/12/24 04:37:52;;;;;;;83.68;47.35;;;;;;;;;;5044020;28;20098;-61
2021/12/24 04:39:43;;;;;;;87.32;50.95;;;;;;;;;;5035619;28;20032;-61
2021/12/24 05:01:44;;;;;;;64.37;40.93;;;;;;;;;;5016588;28;20091;-61
2021/12/24 05:03:58;;;;;;;62.92;39.45;;;;;;;;;;5042748;28;20025;-61
2021/12/24 05:08:52;;;;;;;58.92;35.85;;;;;;;;;;5042404;28;20028;-60
2021/12/24 05:11:18;;;;;;;52.05;35.03;;;;;;;;;;5040915;28;20059;-61
2021/12/24 05:13:43;;;;;;;54.40;35.33;;;;;;;;;;5036580;28;20025;-58
2021/12/24 05:16:19;;;;;;;52.33;33.80;;;;;;;;;;5033689;28;20038;-58
2021/12/24 05:21:42;;;;;;;50.42;35.15;;;;;;;;;;5036876;28;20036;-58
2021/12/24 05:24:26;;;;;;;68.68;35.80;;;;;;;;;;5031143;28;20033;-58
2021/12/24 05:26:57;;;;;;;56.20;31.35;;;;;;;;;;5013783;28;20017;-58
2021/12/24 05:29:23;;;;;;;53.95;36.45;;;;;;;;;;5011811;28;20030;-58
2021/12/24 05:31:49;;;;;;;41.80;31.23;;;;;;;;;;5031472;28;20018;-58
2021/12/24 05:34:15;;;;;;;52.78;32.72;;;;;;;;;;5025501;28;20049;-58
2021/12/24 05:36:41;;;;;;;43.85;29.15;;;;;;;;;;5024234;28;20040;-58
2021/12/24 05:39:06;;;;;;;48.33;32.75;;;;;;;;;;5012117;28;20472;-58
2021/12/24 05:41:31;;;;;;;50.75;32.03;;;;;;;;;;5025834;28;20018;-58
2021/12/24 05:43:58;;;;;;;43.88;31.30;;;;;;;;;;5011841;28;20029;-58
2021/12/24 05:46:24;;;;;;;40.80;27.95;;;;;;;;;;5013349;28;20021;-58
2021/12/24 05:48:49;;;;;;;46.97;29.95;;;;;;;;;;5013436;28;20025;-58
2021/12/24 05:51:14;;;;;;;59.20;30.87;;;;;;;;;;5011693;28;20093;-58
2021/12/24 05:53:39;;;;;;;45.58;31.15;;;;;;;;;;5013070;28;20385;-58
2021/12/24 05:56:05;;;;;;;46.97;31.77;;;;;;;;;;5011538;28;20370;-58
2021/12/24 05:58:30;;;;;;;43.67;28.87;;;;;;;;;;5012624;28;20488;-58
2021/12/24 06:00:56;;;;;;;51.92;30.98;;;;;;;;;;5011570;28;20050;-58
2021/12/24 06:03:21;;;;;;;55.42;31.77;;;;;;;;;;5013089;28;20022;-58
2021/12/24 06:05:46;;;;;;;46.10;30.55;;;;;;;;;;5011126;28;20057;-58
2021/12/24 06:08:11;;;;;;;48.25;31.48;;;;;;;;;;5013078;28;20421;-58
2021/12/24 06:10:37;;;;;;;48.87;29.80;;;;;;;;;;5011443;28;20464;-57
2021/12/24 06:13:03;;;;;;;49.70;31.15;;;;;;;;;;5017833;28;21044;-58
2021/12/24 06:15:28;;;;;;;48.55;31.38;;;;;;;;;;5033637;28;20448;-57
2021/12/24 06:17:56;;;;;;;52.20;30.77;;;;;;;;;;5042007;28;20036;-58
2021/12/24 06:20:21;;;;;;;60.60;31.85;;;;;;;;;;5041094;28;20025;-58
2021/12/24 06:22:47;;;;;;;49.20;32.50;;;;;;;;;;5040480;28;20028;-58
2021/12/24 06:25:12;;;;;;;45.47;29.83;;;;;;;;;;5042324;28;20032;-58
2021/12/24 06:27:37;;;;;;;43.33;27.02;;;;;;;;;;5040650;28;20104;-58
2021/12/24 06:30:04;;;;;;;51.80;33.03;;;;;;;;;;5041320;28;20063;-58
2021/12/24 06:32:29;;;;;;;48.83;33.35;;;;;;;;;;5041615;28;20018;-58
2021/12/24 06:34:55;;;;;;;51.20;31.40;;;;;;;;;;5039897;28;20037;-57
2021/12/24 06:37:20;;;;;;;42.55;29.98;;;;;;;;;;5042179;28;20536;-58
2021/12/24 06:39:45;;;;;;;53.45;31.92;;;;;;;;;;5039216;28;20022;-58
2021/12/24 06:42:10;;;;;;;50.83;34.70;;;;;;;;;;5041878;28;20020;-58
2021/12/24 06:44:35;;;;;;;50.50;32.60;;;;;;;;;;5035528;28;20029;-57
2021/12/24 06:47:00;;;;;;;50.42;31.58;;;;;;;;;;5042670;28;20427;-58
2021/12/24 06:49:26;;;;;;;53.83;28.40;;;;;;;;;;5039112;28;20057;-58
2021/12/24 06:51:51;;;;;;;51.07;32.23;;;;;;;;;;5041115;28;20468;-58
2021/12/24 06:54:17;;;;;;;49.10;30.47;;;;;;;;;;5040746;28;20455;-58
2021/12/24 06:56:43;;;;;;;55.15;30.13;;;;;;;;;;5039952;28;20079;-58
2021/12/24 06:59:08;;;;;;;49.72;30.95;;;;;;;;;;5037675;28;20025;-57
2021/12/24 07:01:33;;;;;;;41.43;24.00;;;;;;;;;;5021178;28;20042;-58
2021/12/24 07:03:58;;;;;;;41.58;22.92;;;;;;;;;;5016725;28;20463;-58
2021/12/24 07:06:23;;;;;;;47.20;27.23;;;;;;;;;;5021729;28;20079;-58
2021/12/24 07:08:49;;;;;;;32.63;23.07;;;;;;;;;;5020983;28;20449;-58
2021/12/24 07:11:14;;;;;;;47.83;25.75;;;;;;;;;;5019509;28;20479;-58
2021/12/24 07:13:39;;;;;;;39.70;22.52;;;;;;;;;;5021516;28;20029;-57
2021/12/24 07:16:05;;;;;;;33.53;20.30;;;;;;;;;;5018738;28;20040;-58
2021/12/24 07:18:30;;;;;;;38.30;21.40;;;;;;;;;;5021052;28;20021;-58
2021/12/24 07:20:55;;;;;;;40.58;19.00;;;;;;;;;;5017552;28;20465;-57
2021/12/24 07:23:20;;;;;;;33.43;19.77;;;;;;;;;;5021102;28;20021;-58
2021/12/24 07:25:46;;;;;;;31.60;19.33;;;;;;;;;;5020910;28;20811;-57
2021/12/24 07:28:11;;;;;;;31.63;19.80;;;;;;;;;;5019771;28;20523;-57
2021/12/24 07:30:36;;;;;;;29.63;19.63;;;;;;;;;;5020083;28;20515;-58
2021/12/24 07:33:01;;;;;;;41.50;21.33;;;;;;;;;;5020992;28;20057;-57
2021/12/24 07:35:26;;;;;;;39.60;23.33;;;;;;;;;;5017320;28;20034;-57
2021/12/24 07:37:52;;;;;;;30.70;19.27;;;;;;;;;;5022055;28;20017;-58
2021/12/24 07:40:17;;;;;;;35.10;19.27;;;;;;;;;;5018730;28;20441;-58
2021/12/24 07:42:43;;;;;;;31.25;21.52;;;;;;;;;;5020298;28;21019;-58
2021/12/24 07:45:09;;;;;;;39.72;19.00;;;;;;;;;;5020252;28;20095;-58
2021/12/24 07:47:39;;;;;;;33.88;17.67;;;;;;;;;;5019930;28;20497;-58
2021/12/24 07:50:17;;;;;;;32.80;19.00;;;;;;;;;;5018554;28;20037;-57
2021/12/24 07:52:43;;;;;;;36.67;19.38;;;;;;;;;;5020962;28;20033;-58
2021/12/24 07:55:09;;;;;;;30.67;19.60;;;;;;;;;;5018198;28;20042;-58
2021/12/24 07:57:35;;;;;;;34.80;19.35;;;;;;;;;;5019325;28;20029;-58
2021/12/24 08:00:00;;;;;;;30.50;18.90;;;;;;;;;;5014219;28;20054;-58
2021/12/24 08:02:27;;;;;;;33.70;17.92;;;;;;;;;;5021183;28;20022;-57
2021/12/24 08:04:53;;;;;;;31.02;18.17;;;;;;;;;;5024201;28;20037;-58
2021/12/24 08:07:20;;;;;;;25.30;14.02;;;;;;;;;;5030479;28;20112;-58
2021/12/24 08:09:45;;;;;;;28.30;18.75;;;;;;;;;;5028281;28;20032;-58
2021/12/24 08:12:11;;;;;;;37.65;18.15;;;;;;;;;;5030524;28;20396;-58
2021/12/24 08:14:37;;;;;;;35.40;17.38;;;;;;;;;;5029216;28;20622;-59
2021/12/24 08:17:02;;;;;;;35.72;20.35;;;;;;;;;;5031008;28;20364;-57
2021/12/24 08:19:29;;;;;;;31.70;18.85;;;;;;;;;;5028729;28;20393;-57
2021/12/24 08:21:54;;;;;;;27.05;17.58;;;;;;;;;;5026963;28;20032;-57
2021/12/24 08:24:19;;;;;;;29.70;16.33;;;;;;;;;;5019463;28;20121;-57
2021/12/24 08:26:44;;;;;;;43.63;19.83;;;;;;;;;;5019455;28;20411;-57
2021/12/24 08:29:10;;;;;;;35.95;18.85;;;;;;;;;;5020035;28;20045;-57
2021/12/24 08:31:35;;;;;;;37.00;18.10;;;;;;;;;;5019269;28;20065;-57
2021/12/24 08:34:01;;;;;;;36.60;18.75;;;;;;;;;;5017843;28;20441;-57
2021/12/24 08:36:26;;;;;;;34.90;17.92;;;;;;;;;;5019300;28;20507;-57
2021/12/24 08:38:51;;;;;;;30.08;18.60;;;;;;;;;;5017656;28;20018;-56
2021/12/24 08:41:16;;;;;;;37.10;18.63;;;;;;;;;;5018098;28;20101;-57
2021/12/24 08:43:41;;;;;;;32.47;17.77;;;;;;;;;;5010740;28;20413;-57
2021/12/24 08:46:07;;;;;;;38.87;17.80;;;;;;;;;;5010158;28;20428;-57
2021/12/24 08:48:32;;;;;;;45.28;19.58;;;;;;;;;;5014012;28;20955;-57
2021/12/24 08:50:57;;;;;;;56.80;18.40;;;;;;;;;;5013018;28;20497;-57
2021/12/24 08:53:23;;;;;;;29.17;16.17;;;;;;;;;;5014219;28;20420;-57
2021/12/24 08:55:48;;;;;;;38.20;15.27;;;;;;;;;;5012646;28;20069;-57
2021/12/24 08:58:13;;;;;;;27.42;15.48;;;;;;;;;;5014324;28;20136;-57
2021/12/24 09:00:38;;;;;;;35.90;18.53;;;;;;;;;;5012506;28;20054;-57
2021/12/24 09:03:04;;;;;;;70.45;18.83;;;;;;;;;;5014123;28;20560;-57
2021/12/24 09:05:30;;;;;;;38.55;18.77;;;;;;;;;;5011460;28;20041;-57
2021/12/24 09:07:55;;;;;;;34.55;17.52;;;;;;;;;;5012263;28;20355;-57
2021/12/24 09:10:20;;;;;;;36.20;19.27;;;;;;;;;;5010914;28;20045;-57
2021/12/24 09:12:46;;;;;;;39.25;18.30;;;;;;;;;;5011652;28;20040;-57
2021/12/24 09:15:13;;;;;;;28.52;17.50;;;;;;;;;;5010680;28;20113;-57
2021/12/24 09:17:43;;;;;;;34.28;18.90;;;;;;;;;;5011876;28;20025;-57
2021/12/24 09:20:09;;;;;;;36.65;19.45;;;;;;;;;;5010674;28;20030;-57
2021/12/24 09:22:35;;;;;;;43.97;18.60;;;;;;;;;;5013860;28;20607;-57
2021/12/24 09:25:00;;;;;;;41.03;20.35;;;;;;;;;;5020477;28;20034;-57
2021/12/24 09:27:25;;;;;;;34.63;20.52;;;;;;;;;;5032799;28;20025;-57
2021/12/24 09:29:51;;;;;;;38.53;23.45;;;;;;;;;;5030308;28;20026;-57
2021/12/24 09:32:16;;;;;;;47.33;23.35;;;;;;;;;;5032380;28;20028;-57
2021/12/24 09:34:41;;;;;;;42.50;24.73;;;;;;;;;;5027738;28;20073;-57
2021/12/24 09:37:06;;;;;;;36.40;21.85;;;;;;;;;;5023550;28;20065;-57
2021/12/24 09:39:31;;;;;;;44.00;23.80;;;;;;;;;;5019771;28;20037;-57
2021/12/24 09:41:57;;;;;;;43.90;22.57;;;;;;;;;;5022366;28;20030;-57
2021/12/24 09:44:22;;;;;;;36.78;23.00;;;;;;;;;;5020680;28;20468;-57
2021/12/24 09:46:47;;;;;;;55.50;26.23;;;;;;;;;;5033060;28;20060;-57
2021/12/24 09:49:13;;;;;;;45.80;27.97;;;;;;;;;;5023208;28;20455;-57
2021/12/24 09:51:41;;;;;;;43.53;22.98;;;;;;;;;;5012361;28;20075;-57
2021/12/24 09:54:13;;;;;;;44.65;25.52;;;;;;;;;;5011940;28;20018;-57
2021/12/24 09:56:39;;;;;;;38.92;25.65;;;;;;;;;;5012318;28;20555;-57
2021/12/24 09:59:04;;;;;;;37.33;24.48;;;;;;;;;;5009118;28;20014;-57
2021/12/24 10:01:31;;;;;;;49.28;24.60;;;;;;;;;;5021909;28;20041;-58
2021/12/24 10:04:02;;;;;;;50.25;26.77;;;;;;;;;;5020614;28;20152;-57
2021/12/24 10:06:27;;;;;;;40.25;23.33;;;;;;;;;;5020970;28;20044;-57
2021/12/24 10:09:02;;;;;;;53.67;25.03;;;;;;;;;;5020403;28;20096;-56
2021/12/24 10:11:31;;;;;;;55.53;25.30;;;;;;;;;;5021158;28;20441;-57
2021/12/24 10:14:03;;;;;;;37.35;22.10;;;;;;;;;;5019909;28;20022;-57
2021/12/24 10:16:28;;;;;;;41.53;25.02;;;;;;;;;;5022196;28;20029;-58
2021/12/24 10:18:55;;;;;;;48.43;26.90;;;;;;;;;;5021301;28;20572;-56
2021/12/24 10:21:22;;;;;;;46.13;25.13;;;;;;;;;;5021034;28;20451;-57
2021/12/24 10:23:48;;;;;;;61.03;31.27;;;;;;;;;;5021104;28;20067;-57
2021/12/24 10:26:13;;;;;;;54.00;30.67;;;;;;;;;;5021210;28;20029;-57
2021/12/24 10:28:38;;;;;;;60.13;29.67;;;;;;;;;;5022946;28;20519;-57
2021/12/24 10:31:03;;;;;;;46.13;28.02;;;;;;;;;;5019790;28;20445;-58
2021/12/24 10:33:28;;;;;;;57.37;31.27;;;;;;;;;;5021271;28;20100;-58
2021/12/24 10:36:00;;;;;;;58.53;30.87;;;;;;;;;;5016168;28;20449;-57
2021/12/24 10:38:25;;;;;;;59.67;31.63;;;;;;;;;;5014686;28;20428;-57
2021/12/24 10:40:52;;;;;;;61.40;32.58;;;;;;;;;;5020859;28;20537;-57
2021/12/24 10:43:23;;;;;;;59.25;31.15;;;;;;;;;;5020795;28;20017;-56
2021/12/24 10:45:48;;;;;;;64.25;34.63;;;;;;;;;;5019816;28;20477;-57
2021/12/24 10:48:19;;;;;;;74.60;32.97;;;;;;;;;;5022471;28;20040;-57
2021/12/24 10:51:04;;;;;;;53.05;30.35;;;;;;;;;;5024020;28;20799;-58
2021/12/24 10:53:34;;;;;;;64.30;32.35;;;;;;;;;;5019286;28;20076;-57
2021/12/24 10:56:00;;;;;;;62.28;34.20;;;;;;;;;;5028605;28;20030;-58
2021/12/24 10:58:26;;;;;;;65.10;33.83;;;;;;;;;;5015669;28;20355;-58
2021/12/24 11:00:55;;;;;;;47.75;32.65;;;;;;;;;;5012581;28;20129;-58
2021/12/24 11:03:22;;;;;;;67.30;33.97;;;;;;;;;;5017392;28;20022;-57
2021/12/24 11:05:52;;;;;;;63.45;32.85;;;;;;;;;;5024898;28;20037;-58
2021/12/24 11:08:19;;;;;;;51.53;30.52;;;;;;;;;;5030601;28;20029;-58
2021/12/24 11:10:46;;;;;;;66.88;35.50;;;;;;;;;;5019305;28;20033;-57
2021/12/24 11:13:17;;;;;;;57.42;34.63;;;;;;;;;;5013383;28;20358;-58
2021/12/24 11:15:46;;;;;;;86.63;38.53;;;;;;;;;;5010855;28;20038;-57
2021/12/24 11:18:21;;;;;;;68.32;33.10;;;;;;;;;;5018931;28;20374;-57
2021/12/24 11:20:51;;;;;;;56.63;34.95;;;;;;;;;;5024390;28;20037;-58
2021/12/24 11:23:17;;;;;;;56.78;32.90;;;;;;;;;;5029434;28;20435;-57
2021/12/24 11:25:47;;;;;;;54.10;33.50;;;;;;;;;;5015268;28;20069;-58
2021/12/24 11:28:13;;;;;;;43.55;29.95;;;;;;;;;;5012694;28;20045;-58
2021/12/24 11:30:40;;;;;;;55.55;31.25;;;;;;;;;;5019194;28;20064;-58
2021/12/24 11:33:06;;;;;;;46.42;32.20;;;;;;;;;;5015031;28;20018;-58
2021/12/24 11:35:32;;;;;;;63.55;33.65;;;;;;;;;;5008570;28;20099;-58
2021/12/24 11:37:59;;;;;;;54.30;29.45;;;;;;;;;;5017227;28;20033;-57
2021/12/24 11:40:24;;;;;;;49.95;31.02;;;;;;;;;;5015107;28;20044;-58
2021/12/24 11:42:54;;;;;;;52.17;29.40;;;;;;;;;;5015180;28;20389;-57
2021/12/24 11:45:21;;;;;;;44.45;33.22;;;;;;;;;;5013039;28;20091;-57
2021/12/24 11:47:46;;;;;;;52.05;31.25;;;;;;;;;;5030781;28;20055;-57
2021/12/24 11:50:11;;;;;;;39.67;29.00;;;;;;;;;;5027899;28;20416;-58
2021/12/24 11:52:37;;;;;;;46.28;28.98;;;;;;;;;;5030716;28;20350;-58
2021/12/24 11:55:02;;;;;;;41.75;28.17;;;;;;;;;;5020529;28;20042;-58
2021/12/24 11:57:27;;;;;;;53.40;30.00;;;;;;;;;;5010948;28;20029;-57
2021/12/24 11:59:53;;;;;;;43.30;29.63;;;;;;;;;;5009514;28;20125;-58
2021/12/24 12:02:33;;;;;;;53.47;32.45;;;;;;;;;;5012133;28;20093;-58
2021/12/24 12:05:09;;;;;;;43.90;28.45;;;;;;;;;;5017810;28;20045;-58
2021/12/24 12:07:34;;;;;;;43.58;28.58;;;;;;;;;;5030743;28;20056;-58
2021/12/24 12:10:03;;;;;;;35.33;25.35;;;;;;;;;;5018678;28;20045;-58
2021/12/24 12:12:32;;;;;;;46.28;26.00;;;;;;;;;;5030534;28;20064;-58
2021/12/24 12:15:15;;;;;;;43.47;25.38;;;;;;;;;;5019021;28;20088;-57
2021/12/24 12:17:51;;;;;;;46.38;23.73;;;;;;;;;;5026656;28;20018;-58
2021/12/24 12:20:35;;;;;;;37.25;26.17;;;;;;;;;;5042201;28;20029;-58
2021/12/24 12:23:01;;;;;;;43.00;26.77;;;;;;;;;;5021632;28;20632;-57
2021/12/24 12:25:32;;;;;;;43.65;26.20;;;;;;;;;;5032945;28;20037;-58
2021/12/24 12:27:58;;;;;;;42.80;25.98;;;;;;;;;;5045253;28;20032;-58
2021/12/24 12:30:29;;;;;;;39.92;23.25;;;;;;;;;;5027107;28;20522;-58
2021/12/24 12:33:11;;;;;;;37.00;25.55;;;;;;;;;;5028851;28;20026;-57
2021/12/24 12:35:37;;;;;;;35.38;23.88;;;;;;;;;;5029038;28;20476;-57
2021/12/24 12:38:02;;;;;;;37.77;26.27;;;;;;;;;;5024206;28;20026;-57
2021/12/24 12:40:32;;;;;;;35.22;23.80;;;;;;;;;;5025800;28;20032;-58
2021/12/24 12:43:04;;;;;;;33.15;23.52;;;;;;;;;;5026755;28;20104;-57
2021/12/24 12:45:32;;;;;;;32.53;22.65;;;;;;;;;;5031974;28;20034;-58
2021/12/24 12:47:58;;;;;;;35.03;21.83;;;;;;;;;;5033760;28;20026;-58
2021/12/24 12:50:24;;;;;;;41.03;26.02;;;;;;;;;;5022094;28;20045;-57
2021/12/24 12:52:52;;;;;;;35.17;22.88;;;;;;;;;;5024086;28;20416;-58
2021/12/24 12:55:36;;;;;;;28.17;21.85;;;;;;;;;;5016958;28;20044;-58
2021/12/24 12:58:17;;;;;;;24.45;19.63;;;;;;;;;;5015676;28;20148;-57
2021/12/24 13:01:00;;;;;;;25.08;20.13;;;;;;;;;;5018936;28;20045;-57
2021/12/24 13:03:25;;;;;;;31.45;20.80;;;;;;;;;;5020812;28;20040;-58
2021/12/24 13:05:58;;;;;;;27.33;20.38;;;;;;;;;;5019165;28;20497;-57
2021/12/24 13:08:26;;;;;;;22.17;18.40;;;;;;;;;;5017538;28;20017;-58
2021/12/24 13:10:55;;;;;;;32.88;19.23;;;;;;;;;;5024815;28;20558;-57
2021/12/24 13:13:20;;;;;;;23.75;18.55;;;;;;;;;;5017147;28;20021;-58
2021/12/24 13:15:46;;;;;;;21.05;15.88;;;;;;;;;;5014632;28;20049;-57
2021/12/24 13:18:27;;;;;;;23.52;17.30;;;;;;;;;;5044257;28;20375;-58
2021/12/24 13:23:38;;;;;;;26.40;16.60;;;;;;;;;;5026004;28;20472;-58
2021/12/24 13:26:11;;;;;;;22.55;17.83;;;;;;;;;;5016919;28;20038;-57
2021/12/24 13:28:56;;;;;;;21.08;16.88;;;;;;;;;;5015329;28;20033;-57
2021/12/24 13:31:22;;;;;;;19.63;16.23;;;;;;;;;;5030167;28;20040;-58
2021/12/24 13:33:47;;;;;;;23.98;17.48;;;;;;;;;;5037327;28;20385;-58
2021/12/24 13:36:13;;;;;;;21.02;16.38;;;;;;;;;;5029392;28;20057;-58
2021/12/24 13:38:38;;;;;;;29.73;14.10;;;;;;;;;;5026681;28;20029;-57
2021/12/24 13:41:03;;;;;;;18.65;15.77;;;;;;;;;;5012447;28;20520;-58
2021/12/24 13:43:31;;;;;;;19.30;15.27;;;;;;;;;;5022352;28;20033;-58
2021/12/24 13:46:04;;;;;;;19.92;13.82;;;;;;;;;;5020495;28;20116;-58
2021/12/24 13:48:42;;;;;;;16.02;14.10;;;;;;;;;;5027438;28;20064;-58
2021/12/24 13:56:22;;;;;;;15.32;13.88;;;;;;;;;;5046650;28;20585;-58
2021/12/24 13:58:54;;;;;;;16.70;14.75;;;;;;;;;;5043932;28;20024;-57
2021/12/24 14:01:22;;;;;;;30.58;14.95;;;;;;;;;;5030813;28;20530;-58
2021/12/24 14:03:48;;;;;;;;;;;;;;;;;;5041714;28;20159;-58
2021/12/24 14:06:13;;;;;;;22.67;15.30;;;;;;;;;;5051242;28;20012;-58
2021/12/24 14:08:39;;;;;;;22.70;18.03;;;;;;;;;;5034963;28;20026;-58
2021/12/24 14:11:06;;;;;;;26.60;18.42;;;;;;;;;;5037330;28;20545;-58
2021/12/24 14:13:36;;;;;;;19.73;17.40;;;;;;;;;;5046191;28;20021;-58
2021/12/24 14:16:31;;;;;;;21.35;17.63;;;;;;;;;;5037827;28;20040;-58
2021/12/24 14:19:19;;;;;;;19.02;15.60;;;;;;;;;;5036379;28;20064;-57
2021/12/24 14:21:45;;;;;;;17.63;15.32;;;;;;;;;;5039914;28;20028;-58
2021/12/24 14:24:22;;;;;;;19.27;15.30;;;;;;;;;;5037754;28;20051;-58
2021/12/24 14:27:01;;;;;;;17.80;14.73;;;;;;;;;;5043079;28;20017;-58
2021/12/24 14:29:28;;;;;;;17.63;15.68;;;;;;;;;;5038997;28;20037;-57
2021/12/24 14:31:55;;;;;;;21.40;13.80;;;;;;;;;;5039676;28;20151;-58
2021/12/24 14:34:30;;;;;;;23.20;15.63;;;;;;;;;;5035539;28;20045;-58
2021/12/24 14:36:57;;;;;;;35.47;21.10;;;;;;;;;;5037397;28;20026;-57
2021/12/24 14:39:22;;;;;;;25.90;19.08;;;;;;;;;;5039422;28;20033;-58
2021/12/24 14:41:47;;;;;;;21.58;14.02;;;;;;;;;;5036065;28;20025;-58
2021/12/24 14:44:28;;;;;;;24.90;15.83;;;;;;;;;;5043953;28;20061;-58
2021/12/24 14:46:57;;;;;;;20.02;12.77;;;;;;;;;;5032169;28;20478;-58
2021/12/24 14:49:22;;;;;;;;;;;;;;;;;;5033201;28;20124;-58
2021/12/24 14:51:47;;;;;;;20.70;11.55;;;;;;;;;;5012725;28;20043;-58
2021/12/24 14:54:12;;;;;;;20.98;12.45;;;;;;;;;;5023839;28;20055;-58
2021/12/24 14:56:37;;;;;;;24.08;14.45;;;;;;;;;;5031923;28;20028;-58
2021/12/24 14:59:03;;;;;;;17.77;12.23;;;;;;;;;;5031909;28;20022;-58
2021/12/24 15:01:29;;;;;;;15.23;11.40;;;;;;;;;;5031577;28;20167;-58
2021/12/24 15:03:54;;;;;;;22.48;12.50;;;;;;;;;;5033724;28;20660;-57
2021/12/24 15:06:27;;;;;;;16.48;10.60;;;;;;;;;;5026509;28;20022;-58
2021/12/24 15:08:52;;;;;;;9.73;8.82;;;;;;;;;;5024478;28;20029;-58
2021/12/24 15:11:20;;;;;;;13.30;7.20;;;;;;;;;;5024501;28;20117;-58
2021/12/24 15:13:48;;;;;;;7.43;6.82;;;;;;;;;;5030873;28;20025;-58
2021/12/24 15:16:16;;;;;;;7.50;5.97;;;;;;;;;;5017138;28;20089;-58
2021/12/24 15:18:42;;;;;;;12.10;6.22;;;;;;;;;;5030791;28;20384;-58
2021/12/24 15:21:07;;;;;;;7.30;6.70;;;;;;;;;;5029502;28;20025;-59
2021/12/24 15:23:32;;;;;;;7.17;5.83;;;;;;;;;;5026694;28;20400;-58
2021/12/24 15:25:58;;;;;;;8.70;6.25;;;;;;;;;;5038234;28;20446;-57
2021/12/24 15:28:23;;;;;;;7.75;7.05;;;;;;;;;;5033993;28;20540;-57
2021/12/24 15:30:49;;;;;;;8.27;7.50;;;;;;;;;;5011006;28;20437;-58
2021/12/24 15:33:15;;;;;;;7.78;7.18;;;;;;;;;;5020607;28;20030;-57
2021/12/24 15:35:40;;;;;;;8.45;7.65;;;;;;;;;;5010282;28;20622;-58
2021/12/24 15:38:06;;;;;;;7.60;7.00;;;;;;;;;;5015416;28;20129;-58
2021/12/24 15:40:31;;;;;;;7.32;6.72;;;;;;;;;;5011840;28;20040;-58
2021/12/24 15:43:01;;;;;;;8.00;7.32;;;;;;;;;;5024218;28;20420;-58
2021/12/24 15:45:26;;;;;;;8.75;6.80;;;;;;;;;;5011919;28;20042;-58
2021/12/24 15:47:52;;;;;;;7.43;6.82;;;;;;;;;;5019411;28;20097;-58
2021/12/24 15:50:17;;;;;;;8.00;7.32;;;;;;;;;;5022671;28;20057;-58
2021/12/24 15:52:42;;;;;;;7.60;6.65;;;;;;;;;;5022995;28;20086;-57
2021/12/24 15:55:07;;;;;;;9.18;8.27;;;;;;;;;;5013163;28;20382;-57